Time;durP1;ratioP1;P1;durP2;ratioP2;P2;SDS_P1;SDS_P2;PMS_P1;PMS_P2;Temp;Humidity;BMP_temperature;BMP_pressure;BME280_temperature;BME280_humidity;BME280_pressure;Samples;Min_cycle;Max_cycle;Signal;HPM_P1;HPM_P2
2023/10/07 00:02:14;;;;;;;;;;;15.60;71.80;;;;;;5242937;22;20242;-83
2023/10/07 00:04:38;;;;;;;;;;;15.70;72.20;;;;;;5243803;22;20258;-82
2023/10/07 00:06:59;;;;;;;;;;;15.60;71.80;;;;;;5244448;22;19913;-84
2023/10/07 00:09:22;;;;;;;;;;;15.50;72.00;;;;;;5242277;22;19907;-83
2023/10/07 00:11:46;;;;;;;;;;;15.60;71.80;;;;;;5241857;22;19981;-83
2023/10/07 00:14:09;;;;;;;;;;;15.60;72.00;;;;;;5241641;22;19964;-82
2023/10/07 00:16:30;;;;;;;;;;;15.50;71.90;;;;;;5244175;22;20396;-82
2023/10/07 00:18:50;;;;;;;;;;;15.50;72.00;;;;;;5245029;22;20456;-82
2023/10/07 00:21:26;;;;;;;;;;;15.40;71.90;;;;;;5219280;22;20285;-82
2023/10/07 00:23:51;;;;;;;;;;;15.50;71.90;;;;;;5239692;22;20246;-81
2023/10/07 00:26:13;;;;;;;;;;;15.40;71.40;;;;;;5245824;22;20242;-84
2023/10/07 00:28:36;;;;;;;;;;;15.30;70.90;;;;;;5246070;22;20114;-84
2023/10/07 00:31:01;;;;;;;;;;;15.30;70.70;;;;;;5243375;22;19906;-83
2023/10/07 00:33:22;;;;;;;;;;;15.30;70.80;;;;;;5244468;22;19907;-82
2023/10/07 00:35:44;;;;;;;;;;;15.30;70.30;;;;;;5245367;22;19929;-83
2023/10/07 00:38:05;;;;;;;;;;;15.20;70.40;;;;;;5243133;22;20368;-83
2023/10/07 00:40:40;;;;;;;;;;;15.20;70.60;;;;;;5242828;22;20001;-83
2023/10/07 00:43:07;;;;;;;;;;;15.20;70.70;;;;;;5220729;22;20047;-83
2023/10/07 00:45:28;;;;;;;;;;;15.20;70.60;;;;;;5242075;22;19929;-83
2023/10/07 00:47:49;;;;;;;;;;;15.10;70.70;;;;;;5218216;22;19907;-83
2023/10/07 00:49:53;;;;;;;;;;;15.20;71.10;;;;;;5214483;22;19903;-83
2023/10/07 00:51:56;;;;;;;;;;;15.20;71.20;;;;;;5241040;22;20127;-83
2023/10/07 00:54:17;;;;;;;;;;;15.10;71.20;;;;;;5189049;22;19907;-83
2023/10/07 00:56:19;;;;;;;;;;;15.10;71.40;;;;;;5215525;22;19907;-83
2023/10/07 00:58:27;;;;;;;;;;;15.00;71.40;;;;;;5216752;22;20347;-84
2023/10/07 01:02:31;;;;;;;;;;;15.00;71.60;;;;;;5242562;22;20428;-82
2023/10/07 01:04:40;;;;;;;;;;;15.00;71.80;;;;;;5241042;22;20373;-82
2023/10/07 01:06:45;;;;;;;;;;;15.00;71.80;;;;;;5244461;22;20330;-83
2023/10/07 01:08:50;;;;;;;;;;;15.00;72.10;;;;;;5216006;22;19974;-83
2023/10/07 01:13:36;;;;;;;;;;;15.00;72.20;;;;;;5242105;22;19941;-82
2023/10/07 01:15:58;;;;;;;;;;;14.90;72.30;;;;;;5239130;22;19978;-82
2023/10/07 01:18:19;;;;;;;;;;;15.00;72.50;;;;;;5244152;22;19902;-81
2023/10/07 01:23:06;;;;;;;;;;;15.00;72.60;;;;;;5244267;22;19907;-86
2023/10/07 01:25:09;;;;;;;;;;;15.00;72.60;;;;;;5244942;22;19914;-82
2023/10/07 01:27:21;;;;;;;;;;;14.90;72.60;;;;;;5218234;22;19910;-82
2023/10/07 01:29:42;;;;;;;;;;;15.00;72.60;;;;;;5244387;22;19914;-82
2023/10/07 01:32:15;;;;;;;;;;;15.00;72.60;;;;;;5244655;22;19910;-82
2023/10/07 01:34:36;;;;;;;;;;;14.90;72.60;;;;;;5245441;22;19941;-83
2023/10/07 01:37:00;;;;;;;;;;;14.90;72.70;;;;;;5244812;22;19910;-82
2023/10/07 01:39:22;;;;;;;;;;;15.00;72.50;;;;;;5246185;22;19902;-83
2023/10/07 01:41:45;;;;;;;;;;;14.90;72.30;;;;;;5244001;22;19907;-83
2023/10/07 01:44:06;;;;;;;;;;;15.00;72.60;;;;;;5245387;22;19914;-82
2023/10/07 01:46:27;;;;;;;;;;;14.90;72.20;;;;;;5244713;22;19930;-83
2023/10/07 01:48:55;;;;;;;;;;;14.90;72.10;;;;;;5246684;22;20065;-83
2023/10/07 01:51:17;;;;;;;;;;;14.90;72.30;;;;;;5245296;22;20003;-83
2023/10/07 01:53:38;;;;;;;;;;;14.90;72.20;;;;;;5244656;22;19914;-82
2023/10/07 01:56:04;;;;;;;;;;;14.90;72.10;;;;;;5244701;22;19976;-82
2023/10/07 01:58:25;;;;;;;;;;;14.90;72.20;;;;;;5245699;22;19906;-83
2023/10/07 02:00:51;;;;;;;;;;;14.80;72.10;;;;;;5246886;22;19939;-82
2023/10/07 02:03:16;;;;;;;;;;;14.90;72.10;;;;;;5245975;22;19907;-83
2023/10/07 02:05:40;;;;;;;;;;;14.80;72.10;;;;;;5257051;22;19913;-82
2023/10/07 02:08:02;;;;;;;;;;;14.80;72.10;;;;;;5261770;22;19910;-83
2023/10/07 02:10:26;;;;;;;;;;;14.80;72.00;;;;;;5245529;22;19906;-83
2023/10/07 02:12:46;;;;;;;;;;;14.80;72.10;;;;;;5247846;22;19907;-83
2023/10/07 02:14:48;;;;;;;;;;;14.90;72.20;;;;;;5220297;22;19909;-82
2023/10/07 02:16:52;;;;;;;;;;;14.80;72.20;;;;;;5249157;22;20284;-83
2023/10/07 02:18:52;;;;;;;;;;;14.80;72.20;;;;;;5244667;22;19903;-81
2023/10/07 02:21:05;;;;;;;;;;;14.80;72.20;;;;;;5244654;22;20527;-84
2023/10/07 02:23:13;;;;;;;;;;;14.80;72.20;;;;;;5244821;22;20310;-82
2023/10/07 02:25:20;;;;;;;;;;;14.80;72.20;;;;;;5218256;22;19907;-83
2023/10/07 02:27:25;;;;;;;;;;;14.70;72.10;;;;;;5219341;22;19918;-83
2023/10/07 02:29:29;;;;;;;;;;;14.70;72.10;;;;;;5220551;22;19906;-83
2023/10/07 02:31:41;;;;;;;;;;;14.70;72.00;;;;;;5245926;22;19910;-83
2023/10/07 02:33:42;;;;;;;;;;;14.70;72.00;;;;;;5243223;22;19914;-83
2023/10/07 02:35:58;;;;;;;;;;;14.70;72.10;;;;;;5216575;22;19903;-84
2023/10/07 02:38:24;;;;;;;;;;;14.60;72.00;;;;;;5242629;22;19910;-82
2023/10/07 02:40:48;;;;;;;;;;;14.70;72.00;;;;;;5219691;22;19925;-82
2023/10/07 02:43:10;;;;;;;;;;;14.70;72.10;;;;;;5221695;22;19903;-82
2023/10/07 02:45:31;;;;;;;;;;;14.70;72.10;;;;;;5221363;22;19972;-82
2023/10/07 02:47:53;;;;;;;;;;;14.60;72.10;;;;;;5243769;22;19955;-83
2023/10/07 02:50:14;;;;;;;;;;;14.60;72.10;;;;;;5241686;22;19907;-81
2023/10/07 02:52:36;;;;;;;;;;;14.60;72.20;;;;;;5243037;22;19912;-81
2023/10/07 02:57:39;;;;;;;;;;;14.50;72.30;;;;;;5244319;22;19909;-82
2023/10/07 03:00:13;;;;;;;;;;;14.50;72.50;;;;;;5244074;22;19903;-83
2023/10/07 03:02:48;;;;;;;;;;;14.50;72.60;;;;;;5244327;22;19930;-82
2023/10/07 03:07:34;;;;;;;;;;;14.50;72.70;;;;;;5243350;22;19913;-82
2023/10/07 03:10:05;;;;;;;;;;;14.50;73.60;;;;;;5243080;22;19910;-83
2023/10/07 03:12:05;;;;;;;;;;;14.40;72.80;;;;;;5190309;22;20266;-83
2023/10/07 03:14:06;;;;;;;;;;;14.40;73.00;;;;;;5241403;22;19906;-82
2023/10/07 03:16:28;;;;;;;;;;;14.50;73.10;;;;;;5241727;22;19989;-83
2023/10/07 03:18:30;;;;;;;;;;;14.40;73.10;;;;;;5215192;22;19907;-81
2023/10/07 03:23:33;;;;;;;;;;;14.40;73.20;;;;;;5243060;22;19902;-82
2023/10/07 03:28:19;;;;;;;;;;;14.40;73.50;;;;;;5242034;22;19902;-83
2023/10/07 03:30:39;;;;;;;;;;;14.40;73.50;;;;;;5242416;22;19902;-83
2023/10/07 03:32:56;;;;;;;;;;;14.40;73.50;;;;;;5242039;22;19915;-82
2023/10/07 03:35:35;;;;;;;;;;;14.50;73.80;;;;;;5243984;22;19923;-83
2023/10/07 03:37:56;;;;;;;;;;;14.40;73.70;;;;;;5216888;22;19942;-83
2023/10/07 03:40:25;;;;;;;;;;;14.40;73.80;;;;;;5241312;22;19913;-83
2023/10/07 03:42:46;;;;;;;;;;;14.30;73.70;;;;;;5243030;22;19903;-83
2023/10/07 03:45:10;;;;;;;;;;;14.30;73.70;;;;;;5244272;22;19910;-82
2023/10/07 03:47:32;;;;;;;;;;;14.30;73.70;;;;;;5227832;22;19920;-82
2023/10/07 03:49:53;;;;;;;;;;;14.40;73.80;;;;;;5266082;22;19894;-83
2023/10/07 03:52:13;;;;;;;;;;;14.40;73.70;;;;;;5266832;22;19905;-83
2023/10/07 03:54:34;;;;;;;;;;;14.40;73.70;;;;;;5262038;22;19913;-82
2023/10/07 03:56:35;;;;;;;;;;;14.40;73.70;;;;;;5248362;22;19930;-83
2023/10/07 03:58:36;;;;;;;;;;;14.30;73.70;;;;;;5244347;22;20000;-83
2023/10/07 04:00:41;;;;;;;;;;;14.40;73.70;;;;;;5245020;22;20374;-83
2023/10/07 04:02:44;;;;;;;;;;;14.30;73.70;;;;;;5242835;22;19958;-83
2023/10/07 04:04:45;;;;;;;;;;;14.30;73.60;;;;;;5188847;22;19911;-83
2023/10/07 04:06:47;;;;;;;;;;;14.20;73.50;;;;;;5243296;22;20467;-83
2023/10/07 04:08:54;;;;;;;;;;;14.20;73.50;;;;;;5243211;22;19902;-84
2023/10/07 04:10:55;;;;;;;;;;;14.20;73.30;;;;;;5213940;22;19910;-83
2023/10/07 04:13:21;;;;;;;;;;;14.30;73.40;;;;;;5239719;22;19911;-84
2023/10/07 04:15:51;;;;;;;;;;;14.30;73.30;;;;;;5220004;22;19913;-83
2023/10/07 04:18:16;;;;;;;;;;;14.30;73.30;;;;;;5243104;22;19906;-83
2023/10/07 04:23:10;;;;;;;;;;;14.20;73.10;;;;;;5243558;22;19902;-83
2023/10/07 04:25:31;;;;;;;;;;;14.20;73.10;;;;;;5221612;22;19914;-83
2023/10/07 04:27:54;;;;;;;;;;;14.20;73.20;;;;;;5233224;22;19922;-81
2023/10/07 04:30:16;;;;;;;;;;;14.10;73.00;;;;;;5260728;22;19918;-83
2023/10/07 04:32:37;;;;;;;;;;;14.20;73.00;;;;;;5244958;22;20140;-83
2023/10/07 04:35:06;;;;;;;;;;;14.20;73.10;;;;;;5247010;22;20239;-83
2023/10/07 04:37:38;;;;;;;;;;;14.30;73.20;;;;;;5246072;22;19907;-82
2023/10/07 04:42:48;;;;;;;;;;;14.20;73.70;;;;;;5244687;22;19903;-82
2023/10/07 04:45:56;;;;;;;;;;;14.10;73.00;;;;;;5243830;22;19911;-84
2023/10/07 04:48:10;;;;;;;;;;;14.10;73.00;;;;;;5245216;22;20255;-84
2023/10/07 04:50:35;;;;;;;;;;;14.20;72.90;;;;;;5244785;22;19926;-83
2023/10/07 04:53:02;;;;;;;;;;;14.10;72.90;;;;;;5242642;22;19906;-83
2023/10/07 04:55:26;;;;;;;;;;;14.10;72.90;;;;;;5249002;22;19914;-82
2023/10/07 04:59:58;;;;;;;;;;;14.00;72.80;;;;;;5215896;22;19972;-84
2023/10/07 05:02:02;;;;;;;;;;;14.00;72.80;;;;;;5242736;22;19907;-82
2023/10/07 05:04:15;;;;;;;;;;;14.10;73.00;;;;;;5216977;22;19907;-83
2023/10/07 05:06:37;;;;;;;;;;;14.00;73.00;;;;;;5245094;22;19917;-82
2023/10/07 05:08:39;;;;;;;;;;;14.00;73.00;;;;;;5216170;22;20117;-83
2023/10/07 05:11:06;;;;;;;;;;;14.00;73.10;;;;;;5245356;22;19903;-83
2023/10/07 05:13:26;;;;;;;;;;;13.90;73.00;;;;;;5221897;22;19954;-83
2023/10/07 05:15:47;;;;;;;;;;;14.00;73.10;;;;;;5221681;22;19953;-82
2023/10/07 05:18:12;;;;;;;;;;;14.00;73.10;;;;;;5222437;22;19910;-82
2023/10/07 05:20:37;;;;;;;;;;;13.90;73.00;;;;;;5245303;22;19927;-83
2023/10/07 05:23:00;;;;;;;;;;;14.00;73.10;;;;;;5245451;22;19903;-83
2023/10/07 05:25:08;;;;;;;;;;;13.90;73.10;;;;;;5219424;22;19921;-81
2023/10/07 05:27:30;;;;;;;;;;;13.90;73.10;;;;;;5244710;22;19992;-83
2023/10/07 05:29:50;;;;;;;;;;;13.90;72.90;;;;;;5246265;22;19913;-82
2023/10/07 05:32:11;;;;;;;;;;;13.90;72.90;;;;;;5245460;22;19911;-83
2023/10/07 05:34:33;;;;;;;;;;;13.80;72.80;;;;;;5246104;22;19946;-82
2023/10/07 05:36:57;;;;;;;;;;;13.80;72.80;;;;;;5218024;22;19973;-82
2023/10/07 05:39:17;;;;;;;;;;;13.80;72.80;;;;;;5245773;22;19903;-82
2023/10/07 05:41:41;;;;;;;;;;;13.80;72.80;;;;;;5243776;22;19902;-82
2023/10/07 05:43:51;;;;;;;;;;;13.80;72.80;;;;;;5242211;22;19907;-82
2023/10/07 05:46:12;;;;;;;;;;;13.90;72.90;;;;;;5242726;22;19910;-82
2023/10/07 05:48:32;;;;;;;;;;;13.80;72.90;;;;;;5243092;22;19903;-82
2023/10/07 05:50:54;;;;;;;;;;;13.80;72.90;;;;;;5242644;22;19985;-83
2023/10/07 05:53:15;;;;;;;;;;;13.70;72.90;;;;;;5242617;22;20674;-83
2023/10/07 05:55:36;;;;;;;;;;;13.70;72.90;;;;;;5242492;22;19903;-83
2023/10/07 05:57:58;;;;;;;;;;;13.70;72.90;;;;;;5242151;22;19973;-82
2023/10/07 06:00:21;;;;;;;;;;;13.70;72.90;;;;;;5217124;22;19903;-83
2023/10/07 06:02:40;;;;;;;;;;;13.70;73.00;;;;;;5238384;22;20338;-83
2023/10/07 06:05:01;;;;;;;;;;;13.70;73.00;;;;;;5241681;22;20147;-83
2023/10/07 06:07:22;;;;;;;;;;;13.60;73.00;;;;;;5240619;22;19902;-82
2023/10/07 06:09:44;;;;;;;;;;;13.70;73.00;;;;;;5241991;22;19911;-82
2023/10/07 06:12:07;;;;;;;;;;;13.60;73.10;;;;;;5242387;22;19903;-83
2023/10/07 06:14:27;;;;;;;;;;;13.60;73.10;;;;;;5218562;22;19907;-83
2023/10/07 06:16:48;;;;;;;;;;;13.70;73.20;;;;;;5241716;22;19941;-82
2023/10/07 06:19:11;;;;;;;;;;;13.60;73.20;;;;;;5242097;22;19914;-82
2023/10/07 06:21:32;;;;;;;;;;;13.60;73.30;;;;;;5242811;22;20111;-81
2023/10/07 06:23:53;;;;;;;;;;;13.70;73.40;;;;;;5241682;22;19907;-83
2023/10/07 06:26:15;;;;;;;;;;;13.60;73.40;;;;;;5243362;22;19914;-83
2023/10/07 06:28:35;;;;;;;;;;;13.70;73.50;;;;;;5242067;22;19910;-81
2023/10/07 06:31:10;;;;;;;;;;;13.70;73.50;;;;;;5241253;22;19907;-82
2023/10/07 06:33:31;;;;;;;;;;;13.60;74.20;;;;;;5242035;22;19963;-82
2023/10/07 06:35:52;;;;;;;;;;;13.60;73.60;;;;;;5242264;22;19902;-82
2023/10/07 06:38:19;;;;;;;;;;;13.60;73.70;;;;;;5243545;22;20145;-83
2023/10/07 06:40:28;;;;;;;;;;;13.60;73.80;;;;;;5217352;22;20294;-82
2023/10/07 06:42:29;;;;;;;;;;;13.60;73.90;;;;;;5189726;22;19978;-82
2023/10/07 06:44:30;;;;;;;;;;;13.70;74.00;;;;;;5243566;22;20451;-82
2023/10/07 06:46:40;;;;;;;;;;;13.70;73.90;;;;;;5242469;22;19911;-81
2023/10/07 06:48:41;;;;;;;;;;;13.70;74.00;;;;;;5244318;22;19936;-82
2023/10/07 06:50:41;;;;;;;;;;;13.70;74.10;;;;;;5246610;22;20392;-82
2023/10/07 06:52:43;;;;;;;;;;;13.60;74.10;;;;;;5236006;22;20446;-82
2023/10/07 06:54:47;;;;;;;;;;;13.60;74.20;;;;;;5227592;22;19907;-83
2023/10/07 06:56:50;;;;;;;;;;;13.70;74.20;;;;;;5250493;22;19907;-83
2023/10/07 06:58:54;;;;;;;;;;;13.70;74.30;;;;;;5251642;22;20071;-83
2023/10/07 07:01:10;;;;;;;;;;;13.70;74.40;;;;;;5249949;22;19917;-83
2023/10/07 07:03:11;;;;;;;;;;;13.60;74.50;;;;;;5220548;22;19947;-83
2023/10/07 07:05:16;;;;;;;;;;;13.80;74.50;;;;;;5220302;22;19954;-82
2023/10/07 07:07:18;;;;;;;;;;;13.70;74.60;;;;;;5247549;22;19988;-82
2023/10/07 07:12:03;;;;;;;;;;;13.70;74.70;;;;;;5249566;22;19909;-82
2023/10/07 07:14:11;;;;;;;;;;;13.70;74.60;;;;;;5196868;22;20496;-82
2023/10/07 07:16:41;;;;;;;;;;;13.80;74.70;;;;;;5243792;22;19902;-82
2023/10/07 07:18:43;;;;;;;;;;;13.80;74.50;;;;;;5247320;22;19903;-83
2023/10/07 07:21:31;;;;;;;;;;;13.80;74.70;;;;;;5249797;22;19977;-83
2023/10/07 07:23:52;;;;;;;;;;;13.80;74.70;;;;;;5248678;22;19906;-83
2023/10/07 07:26:18;;;;;;;;;;;13.70;74.60;;;;;;5247876;22;19910;-83
2023/10/07 07:28:43;;;;;;;;;;;13.80;74.80;;;;;;5225170;22;19914;-83
2023/10/07 07:31:03;;;;;;;;;;;13.80;74.70;;;;;;5220785;22;19914;-83
2023/10/07 07:33:35;;;;;;;;;;;13.80;74.80;;;;;;5247863;22;19906;-83
2023/10/07 07:35:58;;;;;;;;;;;13.90;74.90;;;;;;5246870;22;19910;-83
2023/10/07 07:38:43;;;;;;;;;;;13.80;75.20;;;;;;5247516;22;19903;-82
2023/10/07 07:43:45;;;;;;;;;;;13.90;75.50;;;;;;5244784;22;19986;-82
2023/10/07 07:46:26;;;;;;;;;;;13.90;75.60;;;;;;5221450;22;19967;-83
2023/10/07 07:48:47;;;;;;;;;;;13.90;75.50;;;;;;5222606;22;19910;-83
2023/10/07 07:51:07;;;;;;;;;;;14.00;75.40;;;;;;5242281;22;19907;-83
2023/10/07 07:53:30;;;;;;;;;;;14.00;75.30;;;;;;5243133;22;19977;-82
2023/10/07 07:55:56;;;;;;;;;;;14.10;75.40;;;;;;5240158;22;20261;-84
2023/10/07 07:58:17;;;;;;;;;;;14.10;75.20;;;;;;5242264;22;19914;-83
2023/10/07 08:00:44;;;;;;;;;;;14.00;75.10;;;;;;5242724;22;19906;-83
2023/10/07 08:02:48;;;;;;;;;;;14.00;75.00;;;;;;5244206;22;19934;-82
2023/10/07 08:04:50;;;;;;;;;;;14.00;75.00;;;;;;5215464;22;19907;-83
2023/10/07 08:06:50;;;;;;;;;;;14.10;74.90;;;;;;5243637;22;19914;-83
2023/10/07 08:08:53;;;;;;;;;;;14.10;74.90;;;;;;5243454;22;20258;-83
2023/10/07 08:10:56;;;;;;;;;;;14.00;74.80;;;;;;5190622;22;20217;-83
2023/10/07 08:13:06;;;;;;;;;;;14.10;74.80;;;;;;5216879;22;19903;-83
2023/10/07 08:15:38;;;;;;;;;;;14.00;74.70;;;;;;5243163;22;19903;-82
2023/10/07 08:17:40;;;;;;;;;;;14.00;74.70;;;;;;5190330;22;19959;-83
2023/10/07 08:20:08;;;;;;;;;;;14.10;74.70;;;;;;5244408;22;19903;-83
2023/10/07 08:22:29;;;;;;;;;;;14.00;74.70;;;;;;5215790;22;19903;-82
2023/10/07 08:24:39;;;;;;;;;;;14.00;74.70;;;;;;5241959;22;19907;-83
2023/10/07 08:27:03;;;;;;;;;;;14.10;74.70;;;;;;5220507;22;19929;-83
2023/10/07 08:29:33;;;;;;;;;;;14.10;75.50;;;;;;5220098;22;19910;-84
2023/10/07 08:31:57;;;;;;;;;;;14.20;74.80;;;;;;5243297;22;19945;-83
2023/10/07 08:34:18;;;;;;;;;;;14.10;74.80;;;;;;5243367;22;19933;-83
2023/10/07 08:36:42;;;;;;;;;;;14.20;74.80;;;;;;5244295;22;19903;-83
2023/10/07 08:39:09;;;;;;;;;;;14.20;74.70;;;;;;5219222;22;19914;-84
2023/10/07 08:41:31;;;;;;;;;;;14.10;74.60;;;;;;5241480;22;19981;-83
2023/10/07 08:44:29;;;;;;;;;;;14.20;74.60;;;;;;5216749;22;19906;-83
2023/10/07 08:46:52;;;;;;;;;;;14.10;74.40;;;;;;5242330;22;19906;-84
2023/10/07 08:49:13;;;;;;;;;;;14.20;74.40;;;;;;5243056;22;19945;-83
2023/10/07 08:51:40;;;;;;;;;;;14.20;74.30;;;;;;5240522;22;19907;-83
2023/10/07 08:54:11;;;;;;;;;;;14.20;74.20;;;;;;5219983;22;19914;-83
2023/10/07 08:56:35;;;;;;;;;;;14.20;74.20;;;;;;5220317;22;19909;-82
2023/10/07 08:58:57;;;;;;;;;;;14.20;74.00;;;;;;5244541;22;19917;-84
2023/10/07 09:01:18;;;;;;;;;;;14.20;74.00;;;;;;5222708;22;19907;-84
2023/10/07 09:03:40;;;;;;;;;;;14.20;74.00;;;;;;5244939;22;19902;-83
2023/10/07 09:06:06;;;;;;;;;;;14.20;73.90;;;;;;5220487;22;19942;-83
2023/10/07 09:08:11;;;;;;;;;;;14.20;73.90;;;;;;5245486;22;19909;-85
2023/10/07 09:10:14;;;;;;;;;;;14.20;73.90;;;;;;5243589;22;19910;-83
2023/10/07 09:12:15;;;;;;;;;;;14.20;74.00;;;;;;5217254;22;19911;-84
2023/10/07 09:14:18;;;;;;;;;;;14.30;73.80;;;;;;5245493;22;20291;-83
2023/10/07 09:16:22;;;;;;;;;;;14.20;73.80;;;;;;5216742;22;20038;-84
2023/10/07 09:18:23;;;;;;;;;;;14.20;73.90;;;;;;5218306;22;19907;-83
2023/10/07 09:20:32;;;;;;;;;;;14.20;73.60;;;;;;5217638;22;19907;-84
2023/10/07 09:22:34;;;;;;;;;;;14.30;73.80;;;;;;5245559;22;19903;-84
2023/10/07 09:24:41;;;;;;;;;;;14.20;73.70;;;;;;5248445;22;19963;-82
2023/10/07 09:26:57;;;;;;;;;;;14.30;73.70;;;;;;5239591;22;19910;-83
2023/10/07 09:29:15;;;;;;;;;;;14.20;73.60;;;;;;5267230;22;19902;-84
2023/10/07 09:31:15;;;;;;;;;;;14.30;73.70;;;;;;5239048;22;19921;-83
2023/10/07 09:33:21;;;;;;;;;;;14.30;73.70;;;;;;5240662;22;19915;-83
2023/10/07 09:35:22;;;;;;;;;;;14.30;73.70;;;;;;5267482;22;19938;-83
2023/10/07 09:37:32;;;;;;;;;;;14.30;73.50;;;;;;5257649;22;19906;-84
2023/10/07 09:39:34;;;;;;;;;;;14.30;73.50;;;;;;5249127;22;19909;-84
2023/10/07 09:41:36;;;;;;;;;;;14.40;73.50;;;;;;5221241;22;19907;-83
2023/10/07 09:43:42;;;;;;;;;;;14.30;73.40;;;;;;5250320;22;19959;-83
2023/10/07 09:45:43;;;;;;;;;;;14.30;73.40;;;;;;5246879;22;19906;-84
2023/10/07 09:47:46;;;;;;;;;;;14.30;73.20;;;;;;5247175;22;19909;-84
2023/10/07 09:49:47;;;;;;;;;;;14.30;73.30;;;;;;5246488;22;19903;-84
2023/10/07 09:51:56;;;;;;;;;;;14.40;73.30;;;;;;5247076;22;20317;-84
2023/10/07 09:54:16;;;;;;;;;;;14.30;73.10;;;;;;5218660;22;19986;-83
2023/10/07 09:56:59;;;;;;;;;;;14.30;72.50;;;;;;5244691;22;19902;-83
2023/10/07 09:59:17;;;;;;;;;;;14.30;71.30;;;;;;5169421;23;19903;-84
2023/10/07 10:01:32;;;;;;;;;;;14.30;71.50;;;;;;5166675;22;19947;-85
2023/10/07 10:03:44;;;;;;;;;;;14.20;71.50;;;;;;5165959;22;19957;-84
2023/10/07 10:06:03;;;;;;;;;;;14.10;71.00;;;;;;5139308;23;19974;-83
2023/10/07 10:08:21;;;;;;;;;;;14.10;70.90;;;;;;5138653;23;19914;-84
2023/10/07 10:10:31;;;;;;;;;;;14.10;70.50;;;;;;5164122;22;19953;-84
2023/10/07 10:12:48;;;;;;;;;;;14.10;70.60;;;;;;5164321;22;19904;-84
2023/10/07 10:15:50;;;;;;;;;;;14.00;70.30;;;;;;5140213;23;19928;-84
2023/10/07 10:17:32;;;;;;;;;;;14.00;70.20;;;;;;5163474;22;19938;-84
2023/10/07 10:19:47;;;;;;;;;;;14.00;70.10;;;;;;5165332;22;20352;-83
2023/10/07 10:21:50;;;;;;;;;;;14.00;70.10;;;;;;5161873;22;19939;-82
2023/10/07 10:23:51;;;;;;;;;;;14.00;69.90;;;;;;5159744;22;19911;-83
2023/10/07 10:25:52;;;;;;;;;;;14.00;69.60;;;;;;5160286;22;19949;-84
2023/10/07 10:28:01;;;;;;;;;;;14.00;70.10;;;;;;5161815;22;19935;-84
2023/10/07 10:30:05;;;;;;;;;;;13.90;70.10;;;;;;5163889;22;19915;-84
2023/10/07 10:32:16;;;;;;;;;;;13.90;70.10;;;;;;5162644;22;19919;-84
2023/10/07 10:34:17;;;;;;;;;;;13.90;70.20;;;;;;5242051;22;19902;-84
2023/10/07 10:36:21;;;;;;;;;;;13.90;70.20;;;;;;5216307;22;19954;-84
2023/10/07 10:38:37;;;;;;;;;;;13.90;70.00;;;;;;5214555;22;19914;-84
2023/10/07 10:40:38;;;;;;;;;;;13.90;69.60;;;;;;5214460;22;19906;-84
2023/10/07 10:42:42;;;;;;;;;;;13.80;69.40;;;;;;5241586;22;20283;-84
2023/10/07 10:44:46;;;;;;;;;;;13.80;69.30;;;;;;5214600;22;19966;-84
2023/10/07 10:46:51;;;;;;;;;;;13.90;69.50;;;;;;5241694;22;19914;-84
2023/10/07 10:48:54;;;;;;;;;;;13.80;69.40;;;;;;5240396;22;19906;-84
2023/10/07 10:50:55;;;;;;;;;;;13.80;69.40;;;;;;5213910;22;19956;-87
2023/10/07 10:52:56;;;;;;;;;;;13.80;69.10;;;;;;5241454;22;19906;-84
2023/10/07 10:55:00;;;;;;;;;;;13.80;69.20;;;;;;5214752;22;19903;-84
2023/10/07 10:57:05;;;;;;;;;;;13.70;68.90;;;;;;5213910;22;19914;-85
2023/10/07 10:59:06;;;;;;;;;;;13.80;68.90;;;;;;5188262;22;19903;-84
2023/10/07 11:01:07;;;;;;;;;;;13.70;69.00;;;;;;5188241;22;19913;-84
2023/10/07 11:03:13;;;;;;;;;;;13.80;69.30;;;;;;5241549;22;19906;-84
2023/10/07 11:05:15;;;;;;;;;;;13.70;69.40;;;;;;5213789;22;19903;-85
2023/10/07 11:07:15;;;;;;;;;;;13.70;69.60;;;;;;5240730;22;19917;-85
2023/10/07 11:09:25;;;;;;;;;;;13.60;69.50;;;;;;5214379;22;19911;-84
2023/10/07 11:11:29;;;;;;;;;;;13.70;69.50;;;;;;5241814;22;19906;-85
2023/10/07 11:13:30;;;;;;;;;;;13.70;69.30;;;;;;5214607;22;19903;-86
2023/10/07 11:15:30;;;;;;;;;;;13.70;69.20;;;;;;5242594;22;20356;-85
2023/10/07 11:17:31;;;;;;;;;;;13.60;69.40;;;;;;5242159;22;19913;-84
2023/10/07 11:19:39;;;;;;;;;;;13.60;69.80;;;;;;5242058;22;19906;-84
2023/10/07 11:21:41;;;;;;;;;;;13.60;70.00;;;;;;5241960;22;19934;-84
2023/10/07 11:23:54;;;;;;;;;;;13.60;70.10;;;;;;5215539;22;19907;-84
2023/10/07 11:25:55;;;;;;;;;;;13.60;70.30;;;;;;5242347;22;20585;-84
2023/10/07 11:27:58;;;;;;;;;;;13.60;71.20;;;;;;5227797;22;19911;-84
2023/10/07 11:30:02;;;;;;;;;;;13.70;70.50;;;;;;5251115;22;19938;-84
2023/10/07 11:32:03;;;;;;;;;;;13.70;70.30;;;;;;5214308;22;19915;-84
2023/10/07 11:34:05;;;;;;;;;;;13.70;70.30;;;;;;5213972;22;19914;-84
2023/10/07 11:36:06;;;;;;;;;;;13.80;70.40;;;;;;5241648;22;19902;-83
2023/10/07 11:38:06;;;;;;;;;;;13.70;70.40;;;;;;5214023;22;19961;-83
2023/10/07 11:40:11;;;;;;;;;;;13.80;70.30;;;;;;5214132;22;19903;-86
2023/10/07 11:42:16;;;;;;;;;;;13.80;70.10;;;;;;5187614;22;20327;-84
2023/10/07 11:44:19;;;;;;;;;;;13.80;70.10;;;;;;5241967;22;19938;-84
2023/10/07 11:46:41;;;;;;;;;;;13.90;69.80;;;;;;5217501;22;20290;-84
2023/10/07 11:49:01;;;;;;;;;;;13.80;68.80;;;;;;5218370;22;19906;-84
2023/10/07 11:51:23;;;;;;;;;;;13.90;68.70;;;;;;5239167;22;19903;-84
2023/10/07 11:53:45;;;;;;;;;;;13.90;68.90;;;;;;5241861;22;19987;-85
2023/10/07 11:56:11;;;;;;;;;;;13.90;67.30;;;;;;5240798;22;19906;-84
2023/10/07 11:58:32;;;;;;;;;;;13.90;68.00;;;;;;5240543;22;19903;-84
2023/10/07 12:00:55;;;;;;;;;;;13.90;67.80;;;;;;5218223;22;19934;-84
2023/10/07 12:03:17;;;;;;;;;;;14.00;68.20;;;;;;5244625;22;19911;-85
2023/10/07 12:05:40;;;;;;;;;;;13.90;67.80;;;;;;5243889;22;19903;-84
2023/10/07 12:08:03;;;;;;;;;;;13.90;66.70;;;;;;5249115;22;19914;-84
2023/10/07 12:10:24;;;;;;;;;;;13.90;66.90;;;;;;5218014;22;19913;-84
2023/10/07 12:12:27;;;;;;;;;;;13.90;67.00;;;;;;5214706;22;19911;-83
2023/10/07 12:14:28;;;;;;;;;;;14.00;66.70;;;;;;5241756;22;20342;-84
2023/10/07 12:16:32;;;;;;;;;;;14.00;67.10;;;;;;5215388;22;19903;-84
2023/10/07 12:18:33;;;;;;;;;;;14.00;67.20;;;;;;5189169;22;20009;-84
2023/10/07 12:20:34;;;;;;;;;;;14.00;66.60;;;;;;5241843;22;19906;-84
2023/10/07 12:22:36;;;;;;;;;;;14.00;65.80;;;;;;5212446;22;20501;-84
2023/10/07 12:24:40;;;;;;;;;;;13.90;64.80;;;;;;5214276;22;19906;-83
2023/10/07 12:26:41;;;;;;;;;;;14.00;65.30;;;;;;5216148;22;19917;-84
2023/10/07 12:28:56;;;;;;;;;;;13.90;65.30;;;;;;5216751;22;20017;-84
2023/10/07 12:30:58;;;;;;;;;;;14.00;64.90;;;;;;5213222;22;19903;-84
2023/10/07 12:32:58;;;;;;;;;;;13.90;64.50;;;;;;5242662;22;19951;-84
2023/10/07 12:34:59;;;;;;;;;;;14.00;65.00;;;;;;5215229;22;19903;-85
2023/10/07 12:36:59;;;;;;;;;;;14.00;64.70;;;;;;5214210;22;20312;-84
2023/10/07 12:39:01;;;;;;;;;;;14.00;64.30;;;;;;5241800;22;19909;-84
2023/10/07 12:41:04;;;;;;;;;;;13.90;64.60;;;;;;5242091;22;19907;-84
2023/10/07 12:43:06;;;;;;;;;;;14.00;64.60;;;;;;5240705;22;19907;-84
2023/10/07 12:45:09;;;;;;;;;;;14.00;64.70;;;;;;5241067;22;19913;-85
2023/10/07 12:47:11;;;;;;;;;;;13.90;64.60;;;;;;5242013;22;19903;-83
2023/10/07 12:49:14;;;;;;;;;;;14.00;65.00;;;;;;5214138;22;19907;-85
2023/10/07 12:51:17;;;;;;;;;;;14.00;64.50;;;;;;5241708;22;20362;-84
2023/10/07 12:53:23;;;;;;;;;;;14.10;64.80;;;;;;5238801;22;19944;-83
2023/10/07 12:55:46;;;;;;;;;;;14.00;64.80;;;;;;5241757;22;19907;-84
2023/10/07 12:58:09;;;;;;;;;;;14.00;65.10;;;;;;5220248;22;19910;-85
2023/10/07 13:00:19;;;;;;;;;;;14.10;64.60;;;;;;5242491;22;19910;-84
2023/10/07 13:02:39;;;;;;;;;;;14.00;64.20;;;;;;5242772;22;19902;-84
2023/10/07 13:04:42;;;;;;;;;;;14.10;64.90;;;;;;5215224;22;19907;-84
2023/10/07 13:07:10;;;;;;;;;;;14.20;65.20;;;;;;5242393;22;19910;-83
2023/10/07 13:09:18;;;;;;;;;;;14.10;65.00;;;;;;5214634;22;19962;-83
2023/10/07 13:11:20;;;;;;;;;;;14.20;65.10;;;;;;5188059;22;19990;-84
2023/10/07 13:13:41;;;;;;;;;;;14.20;64.60;;;;;;5240333;22;19974;-83
2023/10/07 13:16:08;;;;;;;;;;;14.30;64.50;;;;;;5241673;22;19930;-84
2023/10/07 13:18:32;;;;;;;;;;;14.30;64.40;;;;;;5239284;22;19909;-83
2023/10/07 13:20:53;;;;;;;;;;;14.30;64.30;;;;;;5238879;22;19951;-84
2023/10/07 13:23:13;;;;;;;;;;;14.30;64.80;;;;;;5240285;22;20027;-83
2023/10/07 13:25:34;;;;;;;;;;;14.30;64.10;;;;;;5238302;22;19934;-84
2023/10/07 13:27:56;;;;;;;;;;;14.30;64.10;;;;;;5238659;22;19907;-85
2023/10/07 13:30:17;;;;;;;;;;;14.40;63.70;;;;;;5240102;22;19955;-83
2023/10/07 13:32:44;;;;;;;;;;;14.40;63.60;;;;;;5240506;22;19946;-84
2023/10/07 13:35:08;;;;;;;;;;;14.40;63.50;;;;;;5239938;22;19911;-84
2023/10/07 13:37:29;;;;;;;;;;;14.40;63.70;;;;;;5242517;22;19933;-84